createdAt,value
2022-11-15T00:02:05.751Z,22.83
2022-11-15T00:06:07.300Z,23.08
2022-11-15T00:10:08.880Z,25.15
2022-11-15T00:14:10.445Z,24.17
2022-11-15T00:18:15.552Z,24.35
2022-11-15T00:22:16.970Z,23.77
2022-11-15T00:26:19.167Z,23.75
2022-11-15T00:30:20.603Z,23.38
2022-11-15T00:34:22.085Z,23.10
2022-11-15T00:38:23.502Z,22.42
2022-11-15T00:42:24.966Z,25.25
2022-11-15T00:46:26.471Z,22.25
2022-11-15T00:50:27.912Z,22.70
2022-11-15T00:54:29.548Z,22.63
2022-11-15T00:58:31.020Z,22.80
2022-11-15T01:02:32.574Z,23.23
2022-11-15T01:06:34.068Z,23.13
2022-11-15T01:10:35.554Z,24.20
2022-11-15T01:14:36.984Z,24.63
2022-11-15T01:18:38.995Z,25.60
2022-11-15T01:22:40.406Z,25.10
2022-11-15T01:26:41.888Z,24.33
2022-11-15T01:30:43.317Z,25.75
2022-11-15T01:34:44.749Z,25.90
2022-11-15T01:38:46.220Z,24.98
2022-11-15T01:42:47.659Z,25.48
2022-11-15T01:46:49.464Z,23.92
2022-11-15T01:50:52.002Z,25.48
2022-11-15T01:55:25.492Z,25.08
2022-11-15T01:59:27.269Z,23.67
2022-11-15T02:03:39.094Z,23.58
2022-11-15T02:07:40.669Z,24.95
2022-11-15T02:11:43.257Z,23.90
2022-11-15T02:16:08.237Z,25.10
2022-11-15T02:20:31.327Z,24.10
2022-11-15T02:24:50.921Z,24.48
2022-11-15T02:29:09.806Z,24.10
2022-11-15T02:33:29.655Z,23.92
2022-11-15T02:37:55.206Z,22.13
2022-11-15T02:42:04.415Z,22.02
2022-11-15T02:46:16.010Z,24.40
2022-11-15T02:50:21.410Z,23.00
2022-11-15T02:54:26.969Z,23.35
2022-11-15T02:58:46.643Z,24.13
2022-11-15T03:03:03.216Z,22.90
2022-11-15T03:07:23.517Z,23.13
2022-11-15T03:15:38.030Z,23.58
2022-11-15T03:19:50.652Z,24.48
2022-11-15T03:23:55.313Z,24.30
2022-11-15T03:28:00.906Z,24.33
2022-11-15T03:32:11.369Z,24.67
2022-11-15T03:36:12.904Z,25.27
2022-11-15T03:40:15.316Z,24.75
2022-11-15T03:44:25.762Z,23.40
2022-11-15T03:48:35.338Z,24.17
2022-11-15T03:52:38.183Z,24.65
2022-11-15T03:56:39.674Z,24.25
2022-11-15T04:00:41.170Z,25.17
2022-11-15T04:04:42.644Z,24.67
2022-11-15T04:08:44.077Z,23.10
2022-11-15T04:12:50.311Z,24.75
2022-11-15T04:16:51.774Z,23.58
2022-11-15T04:21:11.587Z,24.83
2022-11-15T04:25:13.013Z,21.77
2022-11-15T04:29:33.319Z,23.75
2022-11-15T04:33:37.382Z,23.38
2022-11-15T04:37:38.812Z,24.38
2022-11-15T04:41:40.329Z,21.48
2022-11-15T04:45:41.827Z,23.63
2022-11-15T04:49:44.928Z,22.38
2022-11-15T04:53:46.606Z,21.83
2022-11-15T04:57:48.168Z,24.90
2022-11-15T05:01:49.641Z,23.77
2022-11-15T05:05:51.411Z,23.17
2022-11-15T05:09:52.886Z,23.13
2022-11-15T05:13:54.478Z,22.85
2022-11-15T05:18:00.922Z,21.77
2022-11-15T05:22:02.350Z,24.85
2022-11-15T05:26:09.133Z,24.10
2022-11-15T05:30:11.419Z,22.50
2022-11-15T05:34:13.049Z,22.13
2022-11-15T05:38:14.488Z,21.90
2022-11-15T05:42:17.355Z,23.23
2022-11-15T05:46:19.299Z,22.67
2022-11-15T05:50:20.842Z,22.15
2022-11-15T05:54:24.387Z,21.63
2022-11-15T05:58:25.968Z,22.27
2022-11-15T06:02:27.471Z,21.65
2022-11-15T06:06:29.614Z,21.98
2022-11-15T06:10:31.123Z,21.23
2022-11-15T06:14:32.681Z,22.30
2022-11-15T06:18:34.990Z,22.83
2022-11-15T06:22:36.427Z,23.85
2022-11-15T06:26:38.001Z,23.95
2022-11-15T06:30:39.592Z,22.10
2022-11-15T06:34:41.061Z,22.42
2022-11-15T06:38:42.573Z,23.92
2022-11-15T06:42:44.023Z,21.77
2022-11-15T06:46:45.467Z,21.40
2022-11-15T06:50:56.912Z,21.75
2022-11-15T06:54:58.342Z,23.13
2022-11-15T06:58:59.780Z,22.63
2022-11-15T07:03:02.033Z,23.65
2022-11-15T07:07:03.601Z,45.33
2022-11-15T07:11:07.764Z,24.27
2022-11-15T07:15:09.920Z,26.23
2022-11-15T07:19:11.394Z,21.90
2022-11-15T07:23:12.903Z,22.70
2022-11-15T07:27:14.396Z,22.92
2022-11-15T07:31:16.137Z,24.20
2022-11-15T07:35:17.630Z,25.52
2022-11-15T07:39:19.067Z,24.80
2022-11-15T07:43:20.495Z,25.52
2022-11-15T07:47:22.041Z,21.90
2022-11-15T07:51:23.825Z,21.73
2022-11-15T07:55:27.972Z,24.83
2022-11-15T07:59:29.554Z,24.35
2022-11-15T08:03:31.286Z,23.58
2022-11-15T08:07:33.312Z,22.33
2022-11-15T08:11:34.918Z,23.30
2022-11-15T08:15:37.634Z,22.23
2022-11-15T08:19:39.205Z,20.50
2022-11-15T08:23:40.640Z,20.98
2022-11-15T08:27:42.124Z,19.75
2022-11-15T08:31:43.676Z,20.30
2022-11-15T08:35:45.468Z,20.77
2022-11-15T08:39:47.002Z,18.83
2022-11-15T08:43:48.485Z,18.30
2022-11-15T08:47:54.240Z,17.85
2022-11-15T08:51:56.078Z,18.15
2022-11-15T08:55:57.552Z,17.75
2022-11-15T08:59:59.120Z,18.17
2022-11-15T09:04:00.655Z,18.58
2022-11-15T09:08:13.681Z,17.35
2022-11-15T09:12:23.632Z,16.30
2022-11-15T09:16:25.063Z,16.38
2022-11-15T09:20:26.667Z,16.42
2022-11-15T09:24:28.101Z,16.23
2022-11-15T09:28:30.508Z,15.32
2022-11-15T09:32:37.832Z,15.88
2022-11-15T09:36:40.678Z,14.82
2022-11-15T09:40:42.287Z,14.20
2022-11-15T09:44:57.142Z,13.98
2022-11-15T09:49:01.455Z,14.13
2022-11-15T09:53:03.500Z,14.38
2022-11-15T09:57:16.422Z,13.80
2022-11-15T10:01:30.511Z,14.63
2022-11-15T10:05:39.441Z,13.55
2022-11-15T10:09:59.849Z,14.80
2022-11-15T10:14:06.093Z,13.02
2022-11-15T10:18:19.745Z,14.23
2022-11-15T10:22:32.036Z,13.48
2022-11-15T10:26:33.668Z,13.38
2022-11-15T10:30:38.266Z,12.02
2022-11-15T10:34:40.049Z,12.23
2022-11-15T10:39:01.728Z,12.40
2022-11-15T10:43:19.956Z,10.60
2022-11-15T10:47:38.976Z,17.02
2022-11-15T10:51:46.310Z,13.23
2022-11-15T10:55:50.970Z,12.73
2022-11-15T10:59:56.265Z,12.85
2022-11-15T11:04:10.012Z,12.13
2022-11-15T11:08:11.931Z,10.88
2022-11-15T11:12:13.532Z,10.73
2022-11-15T11:16:14.928Z,11.57
2022-11-15T11:20:25.950Z,10.85
2022-11-15T11:24:30.561Z,11.45
2022-11-15T11:29:09.002Z,9.73
2022-11-15T11:33:29.065Z,11.13
2022-11-15T11:38:04.510Z,10.98
2022-11-15T11:42:33.810Z,9.40
2022-11-15T11:46:53.134Z,9.93
2022-11-15T11:51:05.297Z,9.40
2022-11-15T11:55:18.361Z,9.00
2022-11-15T11:59:44.649Z,9.23
2022-11-15T12:03:57.747Z,9.15
2022-11-15T12:08:10.231Z,8.55
2022-11-15T12:12:24.775Z,7.93
2022-11-15T12:16:32.239Z,8.50
2022-11-15T12:20:42.854Z,7.55
2022-11-15T12:24:53.411Z,7.55
2022-11-15T12:29:08.040Z,6.85
2022-11-15T12:33:35.661Z,6.40
2022-11-15T12:37:38.524Z,6.25
2022-11-15T12:41:42.715Z,6.50
2022-11-15T12:45:46.623Z,6.00
2022-11-15T12:49:48.264Z,7.07
2022-11-15T12:53:49.850Z,7.55
2022-11-15T12:57:52.277Z,6.80
2022-11-15T13:01:59.208Z,7.15
2022-11-15T13:06:03.644Z,6.00
2022-11-15T13:10:10.883Z,7.10
2022-11-15T13:14:38.146Z,15.10
2022-11-15T13:18:41.356Z,11.10
2022-11-15T13:22:59.899Z,7.88
2022-11-15T13:27:01.333Z,7.35
2022-11-15T13:31:25.532Z,8.23
2022-11-15T13:35:30.621Z,7.85
2022-11-15T13:39:35.214Z,9.25
2022-11-15T13:43:37.277Z,9.43
2022-11-15T13:47:38.748Z,9.05
2022-11-15T13:51:43.204Z,8.45
2022-11-15T13:55:44.646Z,9.52
2022-11-15T13:59:49.539Z,11.07
2022-11-15T14:03:58.759Z,10.43
2022-11-15T14:12:22.600Z,10.02
2022-11-15T14:16:38.061Z,9.07
2022-11-15T14:20:40.586Z,10.10
2022-11-15T14:24:47.765Z,10.25
2022-11-15T14:28:49.284Z,10.82
2022-11-15T14:32:51.586Z,10.02
2022-11-15T14:36:53.006Z,11.30
2022-11-15T14:40:55.941Z,9.88
2022-11-15T14:44:57.389Z,10.35
2022-11-15T14:48:58.921Z,12.18
2022-11-15T14:53:00.803Z,10.57
2022-11-15T14:57:02.277Z,11.35
2022-11-15T15:01:31.220Z,9.57
2022-11-15T15:05:44.077Z,10.40
2022-11-15T15:09:46.305Z,10.80
2022-11-15T15:13:47.799Z,10.65
2022-11-15T15:17:49.492Z,10.38
2022-11-15T15:21:50.988Z,11.27
2022-11-15T15:25:53.682Z,15.63
2022-11-15T15:29:55.140Z,11.95
2022-11-15T15:33:56.558Z,10.77
2022-11-15T15:37:58.614Z,10.63
2022-11-15T15:42:00.169Z,12.35
2022-11-15T15:46:01.638Z,12.05
2022-11-15T15:50:04.030Z,11.73
2022-11-15T15:54:05.496Z,11.43
2022-11-15T15:58:07.588Z,11.02
2022-11-15T16:02:13.700Z,12.02
2022-11-15T16:06:35.816Z,12.25
2022-11-15T16:10:37.803Z,11.27
2022-11-15T16:14:39.319Z,11.80
2022-11-15T16:18:40.866Z,12.70
2022-11-15T16:22:42.305Z,13.18
2022-11-15T16:26:43.937Z,12.40
2022-11-15T16:30:45.975Z,13.20
2022-11-15T16:34:49.162Z,12.95
2022-11-15T16:38:51.628Z,12.27
2022-11-15T16:42:53.166Z,13.40
2022-11-15T16:46:54.693Z,14.52
2022-11-15T16:50:58.456Z,13.02
2022-11-15T16:54:59.979Z,14.02
2022-11-15T16:59:02.142Z,13.55
2022-11-15T17:03:03.837Z,14.82
2022-11-15T17:07:05.443Z,14.45
2022-11-15T17:11:08.251Z,16.27
2022-11-15T17:15:11.947Z,16.38
2022-11-15T17:19:15.573Z,15.35
2022-11-15T17:23:17.450Z,18.38
2022-11-15T17:27:19.229Z,18.15
2022-11-15T17:31:20.687Z,17.92
2022-11-15T17:35:22.158Z,18.15
2022-11-15T17:39:24.863Z,18.10
2022-11-15T17:43:26.338Z,20.52
2022-11-15T17:47:27.877Z,20.50
2022-11-15T17:51:29.477Z,19.23
2022-11-15T17:55:32.472Z,20.40
2022-11-15T17:59:33.912Z,22.63
2022-11-15T18:03:38.926Z,21.73
2022-11-15T18:07:40.370Z,25.00
2022-11-15T18:11:44.828Z,24.10
2022-11-15T18:15:54.896Z,24.67
2022-11-15T18:19:56.340Z,26.92
2022-11-15T18:23:59.849Z,25.20
2022-11-15T18:28:01.325Z,26.30
2022-11-15T18:32:06.313Z,28.92
2022-11-15T18:36:10.201Z,26.60
2022-11-15T18:40:11.913Z,27.50
2022-11-15T18:44:14.054Z,29.45
2022-11-15T18:48:15.799Z,28.48
2022-11-15T18:52:17.341Z,26.98
2022-11-15T18:56:20.716Z,27.17
2022-11-15T19:00:22.216Z,28.02
2022-11-15T19:04:23.696Z,30.45
2022-11-15T19:08:25.112Z,34.33
2022-11-15T19:12:26.728Z,32.17
2022-11-15T19:16:29.299Z,33.80
2022-11-15T19:20:30.726Z,30.67
2022-11-15T19:24:32.871Z,31.65
2022-11-15T19:28:34.374Z,28.73
2022-11-15T19:32:35.837Z,29.25
2022-11-15T19:36:42.775Z,31.85
2022-11-15T19:40:47.335Z,31.83
2022-11-15T19:44:48.818Z,32.90
2022-11-15T19:48:51.507Z,32.85
2022-11-15T19:52:53.039Z,31.23
2022-11-15T19:56:54.501Z,31.85
2022-11-15T20:01:24.817Z,35.03
2022-11-15T20:05:26.508Z,32.55
2022-11-15T20:09:27.975Z,35.53
2022-11-15T20:13:29.994Z,34.63
2022-11-15T20:17:31.459Z,37.58
2022-11-15T20:21:32.954Z,34.92
2022-11-15T20:25:37.987Z,35.65
2022-11-15T20:29:43.814Z,35.60
2022-11-15T20:33:46.346Z,38.83
2022-11-15T20:37:48.311Z,35.35
2022-11-15T20:41:50.024Z,38.22
2022-11-15T20:45:51.486Z,36.70
2022-11-15T20:49:53.879Z,36.35
2022-11-15T20:53:55.873Z,31.75
2022-11-15T20:57:57.434Z,33.45
2022-11-15T21:01:59.023Z,31.90
2022-11-15T21:06:00.810Z,30.13
2022-11-15T21:10:20.768Z,33.58
2022-11-15T21:14:22.311Z,31.80
2022-11-15T21:18:24.281Z,33.17
2022-11-15T21:22:25.831Z,32.10
2022-11-15T21:26:27.411Z,32.38
2022-11-15T21:30:29.016Z,28.48
2022-11-15T21:34:30.510Z,31.33
2022-11-15T21:38:32.821Z,29.17
2022-11-15T21:42:34.431Z,29.80
2022-11-15T21:46:37.166Z,29.00
2022-11-15T21:50:38.713Z,28.70
2022-11-15T21:54:41.380Z,28.88
2022-11-15T21:58:42.800Z,27.48
2022-11-15T22:02:44.241Z,29.60
2022-11-15T22:06:45.709Z,28.83
2022-11-15T22:10:48.272Z,30.00
2022-11-15T22:14:49.702Z,29.30
2022-11-15T22:18:51.223Z,31.25
2022-11-15T22:22:52.771Z,29.85
2022-11-15T22:26:54.240Z,29.73
2022-11-15T22:30:56.791Z,29.23
2022-11-15T22:34:58.360Z,30.75
2022-11-15T22:38:59.835Z,31.85
2022-11-15T22:43:01.883Z,30.15
2022-11-15T22:47:03.519Z,29.52
2022-11-15T22:51:06.010Z,29.52
2022-11-15T22:55:08.159Z,30.85
2022-11-15T22:59:09.672Z,30.33
2022-11-15T23:03:11.224Z,29.45
2022-11-15T23:07:12.857Z,28.77
2022-11-15T23:11:33.122Z,31.02
2022-11-15T23:15:53.390Z,28.85
2022-11-15T23:23:56.335Z,28.98
2022-11-15T23:27:57.844Z,30.75
2022-11-15T23:32:17.807Z,28.30
2022-11-15T23:36:19.292Z,31.05
2022-11-15T23:40:20.885Z,34.08
2022-11-15T23:44:22.481Z,30.50
2022-11-15T23:48:24.019Z,27.17
2022-11-15T23:52:25.613Z,29.95
2022-11-15T23:56:27.217Z,27.95
